Leyendecker II PSRC

2021-05-08 23:10:00

  • imperial
Date Time Air Temperature Relative Humidity Dewpoint Windchill Heat Index Wind Speed Wind Dir. Rain Solar Radiation Soil Temperature
2m 2m 3m 3m 10cm
US/Mountain F % F F F MPH deg in MJ/m^2 F
max avg avg
2021-05-07 23:15:00 73.3 31.9 41.6 73.3 73.3 3.1 7.1 4.1 209.7 182.8 0.00 0.0000453 63.9
2021-05-07 23:20:00 73.3 32.6 42.2 73.3 73.3 4.9 6.5 3.7 170.1 178.3 0.00 0.0000000 63.8
2021-05-07 23:25:00 74.4 32.5 43.0 74.4 74.4 4.6 8.1 5.9 188.8 181.5 0.00 0.0000000 63.8
2021-05-07 23:30:00 74.2 32.9 43.2 74.2 74.2 2.8 6.3 4.3 153.3 187.8 0.00 0.0000000 63.8
2021-05-07 23:35:00 73.8 33.4 43.2 73.8 73.8 5.6 6.3 4.2 179.0 181.4 0.00 0.0000000 63.7
2021-05-07 23:40:00 73.3 36.2 44.9 73.3 73.3 3.1 5.5 3.2 153.4 175.5 0.00 0.0000000 63.7
2021-05-07 23:45:00 73.3 36.2 44.9 73.3 73.3 3.1 7.8 4.3 218.9 173.4 0.00 0.0000000 63.6
2021-05-07 23:50:00 73.1 36.1 44.6 73.1 73.1 3.7 6.7 4.2 197.1 175.2 0.00 0.0000000 63.6
2021-05-07 23:55:00 72.9 35.5 44.0 72.9 72.9 6.2 6.9 4.3 167.7 170.1 0.00 0.0000000 63.6
2021-05-08 00:00:00 72.9 36.3 44.6 72.9 72.9 9.9 9.9 6.7 156.6 167.7 0.00 0.0000000 63.6
2021-05-08 00:05:00 72.6 36.5 44.5 72.6 72.6 6.7 9.7 7.2 145.6 159.3 0.00 0.0000000 63.5
2021-05-08 00:10:00 72.0 37.5 44.6 72.0 72.0 2.8 7.6 4.5 231.7 156.7 0.00 0.0000000 63.5
2021-05-08 00:15:00 71.9 38.1 45.0 71.9 71.9 2.4 6.5 3.8 188.7 182.2 0.00 0.0000000 63.4
2021-05-08 00:20:00 71.7 38.9 45.4 71.7 71.7 2.1 4.4 2.7 190.0 195.4 0.00 0.0000000 63.4
2021-05-08 00:25:00 71.8 38.5 45.1 71.8 71.8 1.3 6.5 2.9 200.6 168.0 0.00 0.0000000 63.4
2021-05-08 00:30:00 71.3 38.7 44.9 71.3 71.3 4.2 5.1 2.5 59.5 54.0 0.00 0.0000000 63.4
2021-05-08 00:35:00 68.7 40.8 43.9 68.7 68.7 3.0 5.3 3.7 326.4 32.8 0.00 0.0000000 63.3
2021-05-08 00:40:00 67.7 42.1 43.9 67.7 67.7 2.6 4.4 3.0 326.1 323.5 0.00 0.0000000 63.3
2021-05-08 00:45:00 66.9 45.9 45.3 66.9 66.9 2.2 3.3 2.1 145.8 57.2 0.00 0.0000000 63.3
2021-05-08 00:50:00 66.1 46.1 44.8 66.1 66.1 5.5 5.5 3.0 132.0 123.4 0.00 0.0000000 63.3
2021-05-08 00:55:00 67.3 44.3 44.8 67.3 67.3 5.1 7.2 4.9 105.7 118.4 0.00 0.0000000 63.2
2021-05-08 01:00:00 66.2 45.3 44.4 66.2 66.2 3.3 6.0 3.2 257.2 163.4 0.00 0.0000000 63.2
2021-05-08 01:05:00 65.8 46.1 44.5 65.8 65.8 1.2 3.7 1.8 284.6 253.7 0.00 0.0000000 63.2
2021-05-08 01:10:00 65.5 45.7 44.0 65.5 65.5 2.1 2.2 1.7 341.7 323.4 0.00 0.0000000 63.2
2021-05-08 01:15:00 64.9 46.4 43.8 64.9 64.9 1.5 2.1 1.4 48.4 354.7 0.00 0.0000000 63.2
2021-05-08 01:20:00 63.9 49.2 44.5 63.9 63.9 1.9 2.1 1.4 84.1 69.4 0.00 0.0000000 63.2
2021-05-08 01:25:00 63.2 49.2 43.8 63.2 63.2 1.5 2.2 1.6 81.0 87.7 0.00 0.0000000 63.1
2021-05-08 01:30:00 62.5 52.7 45.0 62.5 62.5 1.3 2.4 0.9 112.3 136.6 0.00 0.0000000 63.1
2021-05-08 01:35:00 62.2 54.5 45.6 62.2 62.2 0.0 1.5 0.6 157.1 245.5 0.00 0.0000000 63.1
2021-05-08 01:40:00 61.8 54.1 45.0 61.8 61.8 0.8 1.9 0.8 287.4 13.0 0.00 0.0000000 63.1
2021-05-08 01:45:00 62.8 52.9 45.4 62.8 62.8 2.8 2.8 1.4 52.1 356.1 0.00 0.0000000 63.0
2021-05-08 01:50:00 63.2 51.5 45.1 63.2 63.2 1.0 2.8 1.3 148.7 96.4 0.00 0.0000000 63.0
2021-05-08 01:55:00 62.3 55.9 46.3 62.3 62.3 2.4 2.4 1.6 103.1 109.5 0.00 0.0000000 63.0
2021-05-08 02:00:00 63.4 52.8 45.8 63.4 63.4 4.4 4.9 3.2 106.2 103.6 0.00 0.0000000 63.0
2021-05-08 02:05:00 64.4 52.0 46.4 64.4 64.4 2.8 4.7 3.6 129.9 110.1 0.00 0.0000000 62.9
2021-05-08 02:10:00 64.4 51.9 46.3 64.4 64.4 2.4 3.8 3.0 115.4 120.4 0.00 0.0000000 62.9
2021-05-08 02:15:00 64.2 52.4 46.4 64.2 64.2 1.7 4.0 2.6 148.1 118.7 0.00 0.0000000 62.9
2021-05-08 02:20:00 63.5 52.8 45.9 63.5 63.5 0.0 1.5 0.4 154.1 137.8 0.00 0.0000000 62.9
2021-05-08 02:25:00 63.2 53.6 46.0 63.2 63.2 1.7 2.1 1.3 138.2 90.3 0.00 0.0000000 62.8
2021-05-08 02:30:00 62.5 53.6 45.5 62.5 62.5 1.2 2.2 1.6 7.9 119.2 0.00 0.0000000 62.8
2021-05-08 02:35:00 61.8 55.9 45.9 61.8 61.8 4.0 4.0 2.0 103.8 106.5 0.00 0.0000000 62.8
2021-05-08 02:40:00 62.8 54.1 46.0 62.8 62.8 3.8 5.1 3.5 76.6 96.7 0.00 0.0000000 62.7
2021-05-08 02:45:00 61.8 57.1 46.4 61.8 61.8 1.3 3.7 2.2 89.0 70.6 0.00 0.0000000 62.7
2021-05-08 02:50:00 61.1 57.7 46.1 61.1 61.1 1.5 3.7 2.2 19.7 83.7 0.00 0.0000000 62.7
2021-05-08 02:55:00 60.5 58.4 45.8 60.5 60.5 1.0 3.5 1.9 245.6 76.3 0.00 0.0000000 62.7
2021-05-08 03:00:00 59.5 59.3 45.3 59.5 59.5 1.9 1.9 1.5 0.4 271.8 0.00 0.0000000 62.6
2021-05-08 03:05:00 59.1 61.8 46.0 59.1 59.1 2.4 2.6 1.5 54.2 357.6 0.00 0.0000000 62.6
2021-05-08 03:10:00 59.2 60.1 45.4 59.2 59.2 1.2 3.3 1.7 277.0 8.3 0.00 0.0000000 62.6
2021-05-08 03:15:00 58.7 59.5 44.7 58.7 58.7 2.1 2.1 1.4 6.8 330.0 0.00 0.0000000 62.5
2021-05-08 03:20:00 58.3 62.5 45.5 58.3 58.3 1.0 2.8 1.7 291.0 293.5 0.00 0.0000000 62.5
2021-05-08 03:25:00 57.6 62.9 45.1 57.6 57.6 2.2 2.4 1.4 139.2 139.0 0.00 0.0000000 62.5
2021-05-08 03:30:00 57.2 64.3 45.2 57.2 57.2 2.4 3.7 2.9 151.6 134.6 0.00 0.0000000 62.5
2021-05-08 03:35:00 57.2 63.7 45.0 57.2 57.2 2.6 3.3 2.8 204.4 149.2 0.00 0.0000000 62.5
2021-05-08 03:40:00 56.1 66.2 45.0 56.1 56.1 2.4 3.1 2.2 232.6 219.1 0.00 0.0000000 62.4
2021-05-08 03:45:00 55.6 65.0 44.0 55.6 55.6 3.1 3.1 1.8 338.5 266.6 0.00 0.0000000 62.4
2021-05-08 03:50:00 54.5 64.8 42.9 54.5 54.5 3.0 3.1 2.7 303.5 301.6 0.00 0.0000000 62.4
2021-05-08 03:55:00 53.7 64.2 41.9 53.7 53.7 0.8 3.5 1.7 344.8 314.2 0.00 0.0000000 62.3
2021-05-08 04:00:00 53.2 68.2 42.9 53.2 53.2 0.8 1.7 0.7 33.7 53.9 0.00 0.0000000 62.3
2021-05-08 04:05:00 52.8 71.9 44.0 52.8 52.8 1.0 1.9 1.3 30.6 65.4 0.00 0.0000000 62.3
2021-05-08 04:10:00 52.9 72.6 44.3 52.9 52.9 1.9 2.1 0.8 217.5 212.3 0.00 0.0000000 62.3
2021-05-08 04:15:00 52.7 69.8 43.1 52.7 52.7 0.0 1.9 1.2 247.4 239.1 0.00 0.0000000 62.2
2021-05-08 04:20:00 52.3 73.5 44.1 52.3 52.3 1.0 2.4 1.6 218.2 202.4 0.00 0.0000000 62.2
2021-05-08 04:25:00 52.1 68.1 41.9 52.1 52.1 1.2 1.3 0.4 3.2 307.8 0.00 0.0000000 62.2
2021-05-08 04:30:00 51.6 72.2 42.9 51.6 51.6 1.7 1.7 1.0 99.9 26.8 0.00 0.0000000 62.1
2021-05-08 04:35:00 51.3 74.8 43.6 51.3 51.3 1.2 2.2 1.6 128.7 162.6 0.00 0.0000000 62.1
2021-05-08 04:40:00 51.3 77.5 44.5 51.3 51.3 3.0 3.1 1.8 193.9 175.2 0.00 0.0000000 62.1
2021-05-08 04:45:00 51.2 76.2 44.0 51.2 51.2 1.5 3.0 1.8 206.8 219.0 0.00 0.0000000 62.0
2021-05-08 04:50:00 51.7 79.7 45.6 51.7 51.7 3.0 3.7 2.9 161.0 156.4 0.00 0.0000000 62.0
2021-05-08 04:55:00 52.0 80.8 46.3 52.0 52.0 4.2 4.2 2.7 160.0 178.0 0.00 0.0000000 62.0
2021-05-08 05:00:00 52.8 77.3 45.9 52.8 52.8 3.1 4.7 3.5 161.3 165.2 0.00 0.0000000 62.0
2021-05-08 05:05:00 52.7 77.8 45.9 52.7 52.7 1.9 3.5 2.7 205.5 178.4 0.00 0.0000000 61.9
2021-05-08 05:10:00 52.3 70.9 43.1 52.3 52.3 2.2 2.2 1.1 25.5 146.9 0.00 0.0000000 61.9
2021-05-08 05:15:00 51.1 77.4 44.3 51.1 51.1 1.2 2.1 1.2 93.6 66.6 0.00 0.0000000 61.9
2021-05-08 05:20:00 50.7 80.7 45.0 50.7 50.7 1.0 1.5 1.2 191.4 144.0 0.00 0.0000000 61.8
2021-05-08 05:25:00 50.3 81.6 44.9 50.3 50.3 0.0 0.0 0.0 147.0 0.0 0.00 0.0000000 61.8
2021-05-08 05:30:00 50.1 82.8 45.1 50.1 50.1 2.4 2.4 1.2 200.8 188.4 0.00 0.0000000 61.8
2021-05-08 05:35:00 50.0 82.2 44.8 50.0 50.0 2.4 2.8 2.4 188.7 163.2 0.00 0.0000000 61.7
2021-05-08 05:40:00 49.7 84.2 45.2 49.7 49.7 3.0 4.0 2.8 164.6 169.4 0.00 0.0000000 61.7
2021-05-08 05:45:00 49.4 84.0 44.8 49.4 49.4 1.0 3.5 2.1 28.6 148.1 0.00 0.0000000 61.7
2021-05-08 05:50:00 48.6 82.3 43.5 48.6 48.6 2.2 2.2 1.7 154.2 94.6 0.00 0.0000000 61.6
2021-05-08 05:55:00 49.3 84.7 44.9 49.3 49.3 2.1 3.5 2.1 156.6 152.3 0.00 0.0000000 61.6
2021-05-08 06:00:00 49.0 79.8 43.1 49.0 49.0 2.2 2.2 1.2 179.9 203.5 0.00 0.0000000 61.6
2021-05-08 06:05:00 48.9 82.4 43.7 48.9 48.9 1.7 4.2 3.0 335.7 218.4 0.00 0.0000000 61.6
2021-05-08 06:10:00 48.3 75.8 41.0 48.3 48.3 0.0 3.1 1.6 159.5 305.1 0.00 0.0000000 61.5
2021-05-08 06:15:00 47.6 75.9 40.4 47.6 47.6 1.7 2.6 1.2 6.0 349.1 0.00 0.0001630 61.5
2021-05-08 06:20:00 47.3 80.0 41.4 47.3 47.3 1.3 1.5 0.6 26.4 11.2 0.00 0.0010158 61.5
2021-05-08 06:25:00 47.2 82.2 42.1 47.2 47.2 1.7 2.6 2.1 85.6 72.3 0.00 0.0020670 61.4
2021-05-08 06:30:00 47.0 82.7 42.0 47.0 47.0 0.0 1.7 0.3 247.3 87.4 0.00 0.0029390 61.4
2021-05-08 06:35:00 46.9 84.2 42.4 46.9 46.9 2.2 2.4 1.9 311.0 282.5 0.00 0.0042355 61.4
2021-05-08 06:40:00 46.9 81.8 41.6 46.9 46.9 1.5 2.4 1.7 227.1 282.7 0.00 0.0052684 61.3
2021-05-08 06:45:00 47.6 83.7 42.9 47.6 47.6 2.1 2.8 2.2 190.5 189.8 0.00 0.0062489 61.3
2021-05-08 06:50:00 47.9 82.0 42.7 47.9 47.9 1.2 2.6 2.1 266.0 201.6 0.00 0.0068998 61.3
2021-05-08 06:55:00 48.0 81.5 42.6 48.0 48.0 1.3 1.3 0.6 309.0 32.5 0.00 0.0074868 61.3
2021-05-08 07:00:00 48.2 76.7 41.2 48.2 48.2 1.5 1.7 1.5 318.7 320.1 0.00 0.0082046 61.3
2021-05-08 07:05:00 48.4 75.6 41.1 48.4 48.4 0.0 1.9 1.2 317.6 318.3 0.00 0.0090410 61.2
2021-05-08 07:10:00 48.8 76.8 41.8 48.8 48.8 0.0 0.8 0.1 309.3 331.7 0.00 0.0140899 61.2
2021-05-08 07:15:00 49.4 76.8 42.4 49.4 49.4 0.0 0.0 0.0 252.5 0.0 0.00 0.0388217 61.1
2021-05-08 07:20:00 51.2 76.9 44.2 51.2 51.2 0.0 0.8 0.2 130.2 107.5 0.00 0.0569275 61.1
2021-05-08 07:25:00 53.4 74.0 45.3 53.4 53.4 0.0 1.2 0.3 161.1 139.5 0.00 0.0618929 61.1
2021-05-08 07:30:00 55.1 66.1 44.0 55.1 55.1 1.0 1.5 0.8 43.2 24.9 0.00 0.0669710 61.1
2021-05-08 07:35:00 57.4 60.4 43.8 57.4 57.4 1.3 1.5 0.6 23.7 31.2 0.00 0.0719644 61.0
2021-05-08 07:40:00 58.4 58.2 43.8 58.4 58.4 0.0 2.6 1.5 20.8 21.9 0.00 0.0773325 61.0
2021-05-08 07:45:00 60.3 57.1 45.1 60.3 60.3 1.0 1.9 1.2 14.8 100.9 0.00 0.0823277 61.0
2021-05-08 07:50:00 61.9 58.3 47.1 61.9 61.9 1.9 1.9 1.3 103.6 74.1 0.00 0.0876793 61.0
2021-05-08 07:55:00 62.8 58.1 47.8 62.8 62.8 1.9 2.4 1.9 92.3 109.3 0.00 0.0930146 60.9
2021-05-08 08:00:00 63.7 51.5 45.4 63.7 63.7 1.3 2.4 1.8 138.5 105.4 0.00 0.0984930 60.9
2021-05-08 08:05:00 64.9 50.5 46.1 64.9 64.9 0.0 1.5 0.5 307.0 171.8 0.00 0.1036644 60.9
2021-05-08 08:10:00 65.5 45.6 43.9 65.5 65.5 2.1 2.1 1.4 175.9 171.8 0.00 0.1088512 60.9
2021-05-08 08:15:00 65.9 40.0 40.9 65.9 65.9 2.8 3.0 1.5 162.5 159.3 0.00 0.1143093 60.9
2021-05-08 08:20:00 65.8 39.4 40.4 65.8 65.8 3.7 3.7 2.6 155.2 142.7 0.00 0.1200803 60.8
2021-05-08 08:25:00 66.1 39.0 40.4 66.1 66.1 3.5 3.5 2.7 160.3 142.4 0.00 0.1258901 60.8
2021-05-08 08:30:00 65.9 35.2 37.6 65.9 65.9 2.6 3.8 3.1 161.0 163.7 0.00 0.1315464 60.8
2021-05-08 08:35:00 66.8 32.4 36.3 66.8 66.8 3.1 3.7 2.4 153.0 142.6 0.00 0.1374402 60.8
2021-05-08 08:40:00 67.4 30.5 35.3 67.4 67.4 1.9 3.0 2.2 153.8 139.9 0.00 0.1427863 60.8
2021-05-08 08:45:00 68.3 28.5 34.4 68.3 68.3 1.5 2.8 1.9 132.2 149.0 0.00 0.1485303 60.8
2021-05-08 08:50:00 69.2 27.4 34.2 69.2 69.2 1.2 2.6 1.8 168.7 155.3 0.00 0.1541679 60.8
2021-05-08 08:55:00 70.8 27.6 35.7 70.8 70.8 1.0 1.7 1.0 53.9 82.1 0.00 0.1602781 60.8
2021-05-08 09:00:00 71.8 21.4 30.2 71.8 71.8 1.3 2.4 1.6 297.4 316.0 0.00 0.1674889 60.7
2021-05-08 09:05:00 72.6 21.0 30.4 72.6 72.6 0.8 2.6 1.5 178.8 35.4 0.00 0.1740533 60.8
2021-05-08 09:10:00 71.0 24.6 33.0 71.0 71.0 3.5 5.6 4.1 334.1 9.4 0.00 0.1783208 60.8
2021-05-08 09:15:00 71.3 27.7 36.2 71.3 71.3 5.1 5.1 3.5 42.4 24.5 0.00 0.1847055 60.8
2021-05-08 09:20:00 71.4 18.3 26.0 71.4 71.4 4.7 6.7 4.5 21.0 19.9 0.00 0.1901706 60.8
2021-05-08 09:25:00 72.5 15.4 22.8 72.5 72.5 3.3 4.6 3.1 51.4 35.2 0.00 0.1957729 60.8
2021-05-08 09:30:00 73.4 16.0 24.5 73.4 73.4 4.6 4.6 2.9 49.9 17.3 0.00 0.2008623 60.8
2021-05-08 09:35:00 73.9 12.9 19.8 73.9 73.9 4.6 6.5 3.9 32.9 16.8 0.00 0.2058574 60.8
2021-05-08 09:40:00 74.6 16.6 26.4 74.6 74.6 3.5 5.3 3.3 22.4 18.2 0.00 0.2104346 60.9
2021-05-08 09:45:00 75.7 16.2 26.6 75.7 75.7 3.1 4.4 2.5 39.3 26.2 0.00 0.2154148 60.9
2021-05-08 09:50:00 75.8 16.1 26.6 75.8 75.8 3.3 6.3 3.3 16.6 5.5 0.00 0.2201313 60.9
2021-05-08 09:55:00 75.3 14.1 23.0 75.3 75.3 3.0 7.2 5.7 337.3 4.9 0.00 0.2253469 60.9
2021-05-08 10:00:00 75.8 12.9 21.2 75.8 75.8 3.1 5.1 3.3 25.3 7.7 0.00 0.2299024 60.9
2021-05-08 10:05:00 77.4 11.3 19.4 77.4 77.4 5.5 8.5 4.5 268.2 299.5 0.00 0.2356942 61.0
2021-05-08 10:10:00 78.8 9.7 16.9 78.8 78.8 10.3 13.7 7.1 278.9 260.3 0.00 0.2420711 61.0
2021-05-08 10:15:00 78.5 10.5 18.6 78.5 78.5 8.5 15.8 9.3 227.5 239.3 0.00 0.2465513 61.0
2021-05-08 10:20:00 78.5 8.1 12.4 78.5 78.5 9.6 15.1 9.3 256.3 242.1 0.00 0.2509626 61.1
2021-05-08 10:25:00 79.2 9.4 16.5 79.2 79.2 7.4 11.5 6.7 310.5 251.7 0.00 0.2556548 61.1
2021-05-08 10:30:00 79.5 8.8 15.1 79.5 79.5 5.8 11.3 7.3 209.1 239.5 0.00 0.2591369 61.1
2021-05-08 10:35:00 80.0 9.1 16.4 80.0 80.0 4.0 11.9 6.4 205.3 259.0 0.00 0.2628073 61.2
2021-05-08 10:40:00 79.9 9.7 17.7 79.9 79.9 3.7 14.6 8.4 295.1 273.8 0.00 0.2677506 61.2
2021-05-08 10:45:00 80.3 10.7 20.3 80.3 80.3 7.1 12.8 7.4 271.6 267.8 0.00 0.2725407 61.3
2021-05-08 10:50:00 80.4 6.6 9.3 80.4 80.4 10.8 13.5 7.8 257.0 270.6 0.00 0.2765083 61.3
2021-05-08 10:55:00 80.3 6.9 10.2 80.3 80.3 9.6 14.0 8.8 307.1 287.7 0.00 0.2794816 61.3
2021-05-08 11:00:00 80.5 7.5 12.2 80.5 80.5 6.0 12.8 9.1 266.9 272.9 0.00 0.2839138 61.4
2021-05-08 11:05:00 79.6 6.9 9.8 79.6 79.6 9.4 11.2 7.4 312.6 254.2 0.00 0.2861362 61.4
2021-05-08 11:10:00 80.1 6.9 10.1 80.1 80.1 8.1 14.6 10.1 294.6 282.4 0.00 0.2897561 61.5
2021-05-08 11:15:00 81.0 7.9 13.8 81.0 81.0 8.5 11.5 8.4 307.1 276.6 0.00 0.2933625 61.5
2021-05-08 11:20:00 81.7 6.9 11.3 81.7 81.7 5.6 11.9 7.3 0.0 297.4 0.00 0.2963117 61.6
2021-05-08 11:25:00 81.1 6.3 8.8 81.1 81.1 2.8 12.4 7.3 321.6 300.6 0.00 0.2981237 61.6
2021-05-08 11:30:00 81.6 6.4 9.6 81.6 81.6 7.8 18.9 8.6 280.3 287.3 0.00 0.3004746 61.6
2021-05-08 11:35:00 81.8 6.1 8.8 81.8 81.8 5.3 12.8 8.3 322.4 270.0 0.00 0.3047508 61.7
2021-05-08 11:40:00 81.6 7.2 12.1 81.6 81.6 5.6 18.7 9.8 275.5 286.3 0.00 0.3072699 61.7
2021-05-08 11:45:00 82.9 8.5 17.0 82.9 82.9 6.0 16.5 9.5 221.0 285.0 0.00 0.3094535 61.8
2021-05-08 11:50:00 82.5 8.4 16.3 82.5 82.5 4.7 13.5 6.5 307.5 247.3 0.00 0.3120288 61.8
2021-05-08 11:55:00 81.8 6.7 10.7 81.8 81.8 6.9 10.5 6.6 291.7 231.0 0.00 0.3130907 61.9
2021-05-08 12:00:00 83.3 5.2 6.1 83.3 83.3 7.1 18.0 9.4 267.2 283.5 0.00 0.3157955 61.9
2021-05-08 12:05:00 82.9 5.0 5.1 82.9 82.9 14.0 16.2 7.8 238.1 232.9 0.00 0.3177847 62.0
2021-05-08 12:10:00 83.0 6.8 11.8 83.0 83.0 4.6 13.0 8.2 192.8 272.2 0.00 0.3201448 62.0
2021-05-08 12:15:00 83.4 5.7 8.3 83.4 83.4 8.3 11.5 6.9 244.4 262.5 0.00 0.3213133 62.1
2021-05-08 12:20:00 83.3 5.8 8.8 83.3 83.3 9.0 14.2 9.4 281.0 279.7 0.00 0.3215935 62.2
2021-05-08 12:25:00 83.0 6.5 10.8 83.0 83.0 8.0 16.0 9.0 267.1 267.1 0.00 0.3236651 62.2
2021-05-08 12:30:00 83.4 6.7 11.7 83.4 83.4 6.9 10.1 6.9 299.5 250.6 0.00 0.3242111 62.2
2021-05-08 12:35:00 84.5 6.1 10.5 84.5 84.5 6.5 11.7 7.5 277.2 272.9 0.00 0.3250864 62.3
2021-05-08 12:40:00 83.9 5.5 7.9 83.9 83.9 8.8 14.0 9.5 247.8 269.5 0.00 0.3251939 62.4
2021-05-08 12:45:00 83.3 6.2 10.0 83.3 83.3 5.3 14.7 8.1 53.3 251.9 0.00 0.3252381 62.4
2021-05-08 12:50:00 83.5 5.8 8.7 83.5 83.5 6.2 12.8 8.7 300.9 286.5 0.00 0.3253116 62.5
2021-05-08 12:55:00 84.3 5.1 6.2 84.3 84.3 5.1 16.7 8.3 232.7 262.6 0.00 0.3278652 62.5
2021-05-08 13:00:00 83.5 5.5 7.6 83.5 83.5 8.0 14.7 9.1 256.9 227.7 0.00 0.3288865 62.6
2021-05-08 13:05:00 83.6 6.5 11.3 83.6 83.6 6.2 15.5 10.8 269.0 275.3 0.00 0.3292302 62.7
2021-05-08 13:10:00 84.0 7.0 13.4 84.0 84.0 7.6 10.6 6.4 235.2 243.3 0.00 0.3307887 62.7
2021-05-08 13:15:00 83.8 4.3 2.6 83.8 83.8 15.5 18.7 12.0 237.2 248.7 0.00 0.3312701 62.7
2021-05-08 13:20:00 83.0 8.8 17.9 83.0 83.0 8.5 19.2 11.8 203.0 228.3 0.00 0.3300111 62.8
2021-05-08 13:25:00 83.3 4.7 3.7 83.3 83.3 13.5 14.2 9.3 296.3 227.7 0.00 0.3293083 62.9
2021-05-08 13:30:00 83.9 4.7 4.2 83.9 83.9 14.7 17.6 11.0 225.4 250.7 0.00 0.3277580 63.0
2021-05-08 13:35:00 84.5 4.7 4.5 84.5 84.5 12.1 18.0 11.5 274.0 264.6 0.00 0.3275343 63.0
2021-05-08 13:40:00 84.8 4.0 1.6 84.8 84.8 7.8 13.1 8.2 284.1 277.7 0.00 0.3261692 63.0
2021-05-08 13:45:00 85.1 4.7 5.3 85.1 85.1 15.5 18.5 11.0 264.8 271.5 0.00 0.3246382 63.1
2021-05-08 13:50:00 84.5 4.7 4.6 84.5 84.5 11.2 15.5 11.0 283.8 285.4 0.00 0.3239544 63.2
2021-05-08 13:55:00 84.6 5.3 7.6 84.6 84.6 12.1 12.1 8.7 199.9 242.7 0.00 0.3219842 63.2
2021-05-08 14:00:00 84.9 5.7 9.3 84.9 84.9 8.1 11.2 6.4 205.4 228.0 0.00 0.3190277 63.2
2021-05-08 14:05:00 85.5 5.3 8.3 85.5 85.5 7.2 12.1 8.2 311.7 257.2 0.00 0.3178051 63.3
2021-05-08 14:10:00 85.3 3.7 0.2 85.3 85.3 9.0 16.5 12.0 270.4 265.3 0.00 0.3170880 63.4
2021-05-08 14:15:00 84.6 4.7 4.6 84.6 84.6 13.0 13.0 9.5 236.2 252.5 0.00 0.3145492 63.4
2021-05-08 14:20:00 84.4 3.7 -0.6 84.4 84.4 11.3 14.7 10.4 260.0 238.1 0.00 0.3116809 63.4
2021-05-08 14:25:00 84.9 5.0 6.2 84.9 84.9 6.9 16.9 10.2 299.5 268.4 0.00 0.3097644 63.5
2021-05-08 14:30:00 85.7 4.9 6.5 85.7 85.7 8.1 12.6 8.3 294.0 271.7 0.00 0.3066860 63.5
2021-05-08 14:35:00 86.3 4.2 3.5 86.3 86.3 13.1 17.1 11.7 220.7 280.1 0.00 0.3036402 63.6
2021-05-08 14:40:00 85.7 3.9 1.6 85.7 85.7 8.5 14.7 10.8 303.2 280.5 0.00 0.3023572 63.6
2021-05-08 14:45:00 85.6 4.2 3.0 85.6 85.6 13.5 21.2 14.9 277.3 276.6 0.00 0.2988643 63.7
2021-05-08 14:50:00 85.7 5.6 9.6 85.7 85.7 3.7 14.4 8.8 296.2 279.3 0.00 0.2953554 63.7
2021-05-08 14:55:00 86.0 4.5 4.6 86.0 86.0 8.8 16.4 8.7 240.2 245.5 0.00 0.2922687 63.8
2021-05-08 15:00:00 86.1 4.9 6.8 86.1 86.1 7.4 22.4 10.6 282.5 238.1 0.00 0.2901170 63.8
2021-05-08 15:05:00 86.0 4.0 2.4 86.0 86.0 14.4 16.4 11.6 274.4 259.5 0.00 0.2867839 63.8
2021-05-08 15:10:00 86.3 4.6 5.5 86.3 86.3 8.3 14.6 10.3 255.8 275.0 0.00 0.2832244 63.9
2021-05-08 15:15:00 86.7 5.1 8.1 86.7 86.7 8.0 15.5 8.7 260.2 262.5 0.00 0.2796880 63.9
2021-05-08 15:20:00 86.3 5.3 8.7 86.3 86.3 6.5 18.5 10.2 273.7 259.7 0.00 0.2756802 64.0
2021-05-08 15:25:00 86.1 4.1 2.8 86.1 86.1 14.0 19.8 10.8 285.8 270.9 0.00 0.2728037 64.0
2021-05-08 15:30:00 86.5 4.5 5.3 86.5 86.5 10.6 19.4 10.6 245.7 273.4 0.00 0.2685234 64.0
2021-05-08 15:35:00 86.2 5.1 7.9 86.2 86.2 4.9 17.1 10.1 259.1 255.3 0.00 0.2651017 64.1
2021-05-08 15:40:00 86.3 4.3 4.4 86.3 86.3 12.8 20.1 10.4 291.1 267.3 0.00 0.2609749 64.1
2021-05-08 15:45:00 86.2 5.2 8.2 86.2 86.2 7.1 15.6 8.8 205.6 247.2 0.00 0.2555516 64.1
2021-05-08 15:50:00 85.5 4.8 5.9 85.5 85.5 10.8 14.6 9.3 261.3 223.8 0.00 0.2509918 64.1
2021-05-08 15:55:00 86.6 4.1 3.3 86.6 86.6 10.1 18.9 9.8 302.9 266.9 0.00 0.2463989 64.1
2021-05-08 16:00:00 86.7 4.4 5.0 86.7 86.7 12.1 16.0 10.4 282.4 276.2 0.00 0.2422606 64.2
2021-05-08 16:05:00 86.2 3.9 1.9 86.2 86.2 9.9 19.2 12.1 289.0 258.1 0.00 0.2375399 64.2
2021-05-08 16:10:00 85.7 5.5 9.3 85.7 85.7 7.1 14.7 9.7 212.8 229.1 0.00 0.2321743 64.2
2021-05-08 16:15:00 86.5 3.9 2.1 86.5 86.5 7.8 14.7 8.2 219.7 245.9 0.00 0.2260450 64.2
2021-05-08 16:20:00 86.0 4.8 6.1 86.0 86.0 9.0 18.1 12.1 300.6 253.8 0.00 0.2218568 64.3
2021-05-08 16:25:00 86.4 4.6 5.6 86.4 86.4 4.0 14.7 9.0 306.4 262.1 0.00 0.2150229 64.3
2021-05-08 16:30:00 86.0 4.8 6.4 86.0 86.0 4.9 17.2 11.3 262.3 255.3 0.00 0.2107514 64.3
2021-05-08 16:35:00 86.0 3.9 1.8 86.0 86.0 12.1 16.2 10.2 304.5 265.2 0.00 0.2065760 64.3
2021-05-08 16:40:00 86.8 4.2 3.8 86.8 86.8 8.7 12.6 8.2 300.2 287.4 0.00 0.2033931 64.3
2021-05-08 16:45:00 87.0 4.2 4.3 87.0 87.0 8.5 13.9 10.4 293.0 281.3 0.00 0.1973176 64.3
2021-05-08 16:50:00 87.2 4.0 3.2 87.2 87.2 15.6 15.6 10.3 292.9 277.6 0.00 0.1893002 64.3
2021-05-08 16:55:00 87.0 6.1 12.4 87.0 87.0 5.3 16.2 9.3 243.1 276.6 0.00 0.1853396 64.3
2021-05-08 17:00:00 86.5 5.5 9.7 86.5 86.5 4.0 10.1 7.0 234.1 248.2 0.00 0.1809424 64.4
2021-05-08 17:05:00 87.0 4.1 3.4 87.0 87.0 14.6 16.4 6.3 290.3 271.6 0.00 0.1739378 64.4
2021-05-08 17:10:00 86.8 3.8 1.6 86.8 86.8 8.7 17.1 9.8 270.1 287.7 0.00 0.1683102 64.4
2021-05-08 17:15:00 86.6 4.3 4.4 86.6 86.6 9.4 13.3 9.5 289.1 288.9 0.00 0.1632598 64.4
2021-05-08 17:20:00 86.5 4.8 6.5 86.5 86.5 5.3 12.1 7.5 278.5 275.3 0.00 0.1575485 64.4
2021-05-08 17:25:00 86.5 4.1 3.1 86.5 86.5 9.9 21.4 12.0 281.3 288.8 0.00 0.1518897 64.4
2021-05-08 17:30:00 87.1 3.8 2.2 87.1 87.1 8.8 10.8 7.2 265.0 280.5 0.00 0.1462549 64.4
2021-05-08 17:35:00 86.3 5.0 7.3 86.3 86.3 4.7 20.1 9.0 274.3 265.2 0.00 0.1404349 64.4
2021-05-08 17:40:00 86.2 4.1 3.3 86.2 86.2 10.5 13.0 8.1 231.0 256.2 0.00 0.1335423 64.4
2021-05-08 17:45:00 86.5 3.8 1.8 86.5 86.5 7.4 12.4 7.7 288.0 268.6 0.00 0.1284727 64.4
2021-05-08 17:50:00 86.0 4.8 6.4 86.0 86.0 6.7 14.2 8.0 263.5 269.0 0.00 0.1218653 64.4
2021-05-08 17:55:00 85.4 4.5 4.5 85.4 85.4 9.4 10.6 7.0 269.2 228.3 0.00 0.1160235 64.4
2021-05-08 18:00:00 85.6 4.6 5.1 85.6 85.6 11.0 16.9 10.0 261.7 267.7 0.00 0.1106179 64.4
2021-05-08 18:05:00 85.6 4.8 6.1 85.6 85.6 8.7 12.4 8.5 206.9 258.7 0.00 0.1054968 64.4
2021-05-08 18:10:00 85.5 4.9 6.2 85.5 85.5 12.8 15.5 9.9 286.8 274.1 0.00 0.1000702 64.4
2021-05-08 18:15:00 85.4 4.2 3.2 85.4 85.4 13.3 15.5 11.3 282.0 282.1 0.00 0.0919861 64.4
2021-05-08 18:20:00 85.0 3.9 1.1 85.0 85.0 15.6 18.7 11.6 297.6 280.6 0.00 0.0872054 64.4
2021-05-08 18:25:00 85.2 4.7 5.2 85.2 85.2 7.4 12.1 8.9 300.3 290.5 0.00 0.0832440 64.4
2021-05-08 18:30:00 85.1 4.8 5.5 85.1 85.1 7.2 14.0 9.2 276.9 291.6 0.00 0.0773575 64.4
2021-05-08 18:35:00 84.8 4.3 3.3 84.8 84.8 8.5 14.7 10.8 275.7 281.0 0.00 0.0718240 64.4
2021-05-08 18:40:00 84.6 4.2 2.6 84.6 84.6 11.9 14.0 9.2 240.4 282.3 0.00 0.0657919 64.4
2021-05-08 18:45:00 84.3 4.4 3.3 84.3 84.3 6.7 14.6 10.8 293.1 285.2 0.00 0.0615744 64.4
2021-05-08 18:50:00 84.1 4.4 3.0 84.1 84.1 8.7 16.4 10.0 277.6 285.2 0.00 0.0564635 64.3
2021-05-08 18:55:00 83.9 4.4 2.8 83.9 83.9 8.5 16.0 10.1 275.5 290.2 0.00 0.0504728 64.3
2021-05-08 19:00:00 83.6 4.7 4.0 83.6 83.6 6.2 13.1 9.1 237.1 284.6 0.00 0.0457208 64.3
2021-05-08 19:05:00 83.5 4.5 3.2 83.5 83.5 6.5 13.5 9.1 312.6 282.9 0.00 0.0412936 64.3
2021-05-08 19:10:00 83.2 4.6 3.1 83.2 83.2 10.6 12.4 9.4 288.8 281.4 0.00 0.0357127 64.3
2021-05-08 19:15:00 83.0 4.9 4.8 83.0 83.0 4.0 12.1 7.8 287.1 287.0 0.00 0.0303797 64.3
2021-05-08 19:20:00 82.8 4.5 2.4 82.8 82.8 8.8 12.4 8.7 265.5 277.9 0.00 0.0257589 64.3
2021-05-08 19:25:00 82.5 4.5 2.2 82.5 82.5 12.2 13.0 8.4 318.5 282.3 0.00 0.0147938 64.3
2021-05-08 19:30:00 82.1 5.1 4.7 82.1 82.1 7.4 11.7 7.9 303.0 289.1 0.00 0.0106717 64.3
2021-05-08 19:35:00 81.3 5.1 4.2 81.3 81.3 8.1 11.7 8.0 301.0 299.8 0.00 0.0052561 64.2
2021-05-08 19:40:00 80.8 5.1 4.1 80.8 80.8 9.0 10.6 7.7 317.7 301.3 0.00 0.0038466 64.2
2021-05-08 19:45:00 80.5 5.3 4.4 80.5 80.5 5.6 10.5 7.6 287.3 291.3 0.00 0.0024964 64.2
2021-05-08 19:50:00 79.9 5.1 3.1 79.9 79.9 8.1 11.3 7.2 308.5 301.6 0.00 0.0011510 64.2
2021-05-08 19:55:00 79.4 5.8 5.8 79.4 79.4 5.6 8.3 5.5 303.6 298.2 0.00 0.0001168 64.2
2021-05-08 20:00:00 79.2 5.2 3.1 79.2 79.2 5.1 10.1 6.4 293.0 293.2 0.00 0.0000000 64.1
2021-05-08 20:05:00 78.8 5.4 3.9 78.8 78.8 2.8 6.3 4.7 295.2 295.9 0.00 0.0000000 64.1
2021-05-08 20:10:00 78.5 5.2 2.6 78.5 78.5 6.9 8.3 5.4 292.7 296.7 0.00 0.0000000 64.1
2021-05-08 20:15:00 77.6 6.1 5.6 77.6 77.6 2.8 7.2 5.0 290.9 303.5 0.00 0.0000000 64.1
2021-05-08 20:20:00 76.5 6.6 6.4 76.5 76.5 3.7 5.8 3.3 284.9 297.1 0.00 0.0000000 64.1
2021-05-08 20:25:00 75.6 6.7 6.3 75.6 75.6 3.7 4.6 2.9 273.0 308.2 0.00 0.0000000 64.1
2021-05-08 20:30:00 75.1 7.0 6.7 75.1 75.1 3.1 3.5 2.6 303.1 297.1 0.00 0.0000000 64.0
2021-05-08 20:35:00 74.3 7.7 8.3 74.3 74.3 1.0 3.1 1.4 307.8 304.7 0.00 0.0000000 64.0
2021-05-08 20:40:00 73.5 7.8 7.9 73.5 73.5 0.0 1.3 0.7 280.0 306.1 0.00 0.0000000 64.0
2021-05-08 20:45:00 72.4 8.7 9.5 72.4 72.4 2.1 2.1 0.6 267.4 262.9 0.00 0.0000000 64.0
2021-05-08 20:50:00 71.5 8.9 9.3 71.5 71.5 1.0 3.0 1.2 241.8 286.7 0.00 0.0000000 64.0
2021-05-08 20:55:00 70.2 9.6 10.2 70.2 70.2 1.0 1.5 1.0 277.5 248.3 0.00 0.0000000 63.9
2021-05-08 21:00:00 68.7 10.7 11.3 68.7 68.7 1.7 1.7 1.3 269.5 261.9 0.00 0.0000000 63.9
2021-05-08 21:05:00 67.5 11.0 11.1 67.5 67.5 1.5 2.1 1.8 252.4 258.6 0.00 0.0000000 63.8
2021-05-08 21:10:00 66.5 11.9 12.1 66.5 66.5 1.9 2.1 1.8 280.6 281.0 0.00 0.0000000 63.8
2021-05-08 21:15:00 65.5 13.1 13.4 65.5 65.5 2.1 2.4 2.0 283.6 289.4 0.00 0.0000000 63.8
2021-05-08 21:20:00 64.6 15.6 16.8 64.6 64.6 1.0 2.4 1.8 235.0 262.2 0.00 0.0000000 63.7
2021-05-08 21:25:00 63.4 14.9 14.7 63.4 63.4 0.0 1.2 0.3 239.0 221.4 0.00 0.0000000 63.7
2021-05-08 21:30:00 62.4 16.0 15.6 62.4 62.4 0.0 0.0 0.0 271.1 0.0 0.00 0.0000000 63.7
2021-05-08 21:35:00 61.7 16.3 15.4 61.7 61.7 1.9 2.2 1.7 199.8 262.0 0.00 0.0000000 63.7
2021-05-08 21:40:00 61.5 16.8 16.0 61.5 61.5 2.1 2.1 1.4 279.1 272.1 0.00 0.0000000 63.6
2021-05-08 21:45:00 61.3 16.5 15.4 61.3 61.3 2.4 3.0 2.0 285.6 251.0 0.00 0.0000000 63.6
2021-05-08 21:50:00 61.2 18.2 17.5 61.2 61.2 1.3 3.0 1.9 308.4 269.9 0.00 0.0000000 63.6
2021-05-08 21:55:00 60.3 20.8 20.0 60.3 60.3 1.7 2.8 1.9 298.3 297.0 0.00 0.0000000 63.5
2021-05-08 22:00:00 59.7 19.9 18.4 59.7 59.7 1.2 2.6 1.9 249.3 272.9 0.00 0.0000000 63.5
2021-05-08 22:05:00 59.6 22.6 21.3 59.6 59.6 2.8 3.1 1.7 313.5 295.1 0.00 0.0000000 63.4
2021-05-08 22:10:00 59.1 23.8 22.1 59.1 59.1 3.1 3.3 2.3 346.1 317.3 0.00 0.0000000 63.4
2021-05-08 22:15:00 58.9 21.6 19.7 58.9 58.9 2.1 3.1 2.4 323.8 330.0 0.00 0.0000000 63.4
2021-05-08 22:20:00 58.6 21.6 19.4 58.6 58.6 3.3 3.3 2.7 30.5 4.4 0.00 0.0000000 63.3
2021-05-08 22:25:00 58.4 21.9 19.5 58.4 58.4 1.5 3.5 2.7 57.4 36.5 0.00 0.0000000 63.3
2021-05-08 22:30:00 57.7 26.5 23.5 57.7 57.7 0.0 1.3 0.2 127.8 41.2 0.00 0.0000000 63.3
2021-05-08 22:35:00 57.0 26.7 23.0 57.0 57.0 0.0 1.3 0.3 332.8 21.5 0.00 0.0000000 63.2
2021-05-08 22:40:00 56.6 28.6 24.3 56.6 56.6 0.0 1.0 0.2 310.4 310.7 0.00 0.0000000 63.2
2021-05-08 22:45:00 56.4 27.3 23.1 56.4 56.4 0.0 0.0 0.0 266.6 0.0 0.00 0.0000000 63.1
2021-05-08 22:50:00 56.1 23.8 19.6 56.1 56.1 1.9 1.9 1.2 228.0 249.3 0.00 0.0000000 63.1
2021-05-08 22:55:00 56.4 21.8 17.9 56.4 56.4 2.4 2.4 1.5 240.8 223.1 0.00 0.0000000 63.1
2021-05-08 23:00:00 59.9 11.6 6.4 59.9 59.9 5.8 5.8 3.6 216.4 232.2 0.00 0.0001258 63.0
2021-05-08 23:05:00 61.4 13.9 11.6 61.4 61.4 4.7 5.1 3.3 224.0 224.3 0.00 0.0000550 63.0
2021-05-08 23:10:00 62.0 14.0 12.1 62.0 62.0 3.0 5.6 3.2 220.9 218.1 0.00 0.0000000 63.0

Data is courtesy of the NM Climate Center. DO NOT USE IN LEGAL PROCEEDINGS.